Flight Track Log - Related Links

Times and Time Zones

All times are in EDT time to prevent confusion due to time zone crossing. See the WIG7306 flight status page for this flight to view local times or setup timezone preferences in your user account.

Time Position Orientation Groundspeed Altitude Reporting Facility
EDT Latitude Longitude Course Direction KTS MPH feet Rate Location/Type
Thu 10:37:23 PM 42.7533 -73.8039 315° West 85 98 1,000  Level Boston Center
Thu 10:37:59 PM 42.7619 -73.8156 315° West 84 97 1,700 840 Climbing Boston Center
Thu 10:39:03 PM 42.7461 -73.8539 241° Southwest 139 160 2,400 732 Climbing Boston Center
Thu 10:40:02 PM 42.7317 -73.8983 246° West 135 155 3,200 785 Climbing Boston Center
Thu 10:41:13 PM 42.6986 -73.9286 214° Southwest 134 154 4,100 750 Climbing Boston Center
Thu 10:42:02 PM 42.6672 -73.9436 199° South 133 153 4,700 787 Climbing Boston Center
Thu 10:42:14 PM 42.6617 -73.9458 196° South 134 154 4,900 774 Climbing Boston Center
Thu 10:43:04 PM 42.6314 -73.9633 203° Southwest 131 151 5,500 774 Climbing Boston Center
Thu 10:43:16 PM 42.6281 -73.9644 194° South 133 153 5,700 818 Climbing Boston Center
Thu 10:44:10 PM 42.5956 -73.9833 203° Southwest 130 150 6,400 730 Climbing Boston Center
Thu 10:45:11 PM 42.5622 -74.0008 201° Southwest 132 152 7,100 703 Climbing Boston Center
Thu 10:46:18 PM 42.5239 -74.0228 203° Southwest 133 153 7,900 470 Climbing Boston Center
Thu 10:47:06 PM 42.4969 -74.0397 205° Southwest 128 147 8,000  Climbing Boston Center
Thu 10:47:18 PM 42.4914 -74.0422 198° South 131 151 7,900 -83 Descending Boston Center
Thu 10:48:18 PM 42.4558 -74.0617 202° Southwest 133 153 7,900  Level Boston Center
Thu 10:49:07 PM 42.4250 -74.0792 203° Southwest 140 161 7,900 98 Level Boston Center
Thu 10:49:19 PM 42.4194 -74.0806 190° South 136 157 8,000  Climbing Boston Center
Thu 10:50:08 PM 42.3892 -74.0989 204° Southwest 139 160 7,900 98 Descending Boston Center
Thu 10:50:20 PM 42.3842 -74.1003 192° South 136 157 8,100 82 Climbing Boston Center
Thu 10:51:21 PM 42.3461 -74.1219 203° Southwest 136 157 8,000  Descending Boston Center
Thu 10:52:21 PM 42.3117 -74.1397 201° Southwest 135 155 8,100  Climbing Boston Center
Thu 10:53:24 PM 42.2744 -74.1608 203° Southwest 139 160 8,000 -48 Descending Boston Center
Thu 10:54:25 PM 42.2381 -74.1806 202° Southwest 140 161 8,000  Level Boston Center
Thu 10:55:26 PM 42.2011 -74.2011 202° Southwest 141 162 8,000 50 Level Boston Center
Thu 10:56:26 PM 42.1608 -74.2211 200° South 142 163 8,100  Climbing Boston Center
Thu 10:57:28 PM 42.1231 -74.2394 200° South 143 165 8,000 -49 Descending Boston Center
Thu 10:58:29 PM 42.0856 -74.2586 201° Southwest 143 165 8,000  Level Boston Center
Thu 10:59:29 PM 42.0486 -74.2764 200° South 143 165 8,000  Level Boston Center
Thu 11:00:30 PM 42.0117 -74.2942 200° South 143 165 8,000 -49 Level Boston Center
Thu 11:01:31 PM 41.9750 -74.3136 202° Southwest 143 165 7,900  Descending Boston Center
Thu 11:02:31 PM 41.9342 -74.3331 200° South 143 165 8,000  Climbing Boston Center
Thu 11:03:32 PM 41.8967 -74.3525 201° Southwest 143 165 7,900 -50 Descending Boston Center
Thu 11:04:32 PM 41.8578 -74.3708 199° South 147 169 7,900  Level Boston Center
Thu 11:05:33 PM 41.8208 -74.3881 199° South 142 163 7,900 -49 Level Boston Center
Thu 11:06:34 PM 41.7847 -74.4056 200° South 141 162 7,800 -298 Descending Boston Center
Thu 11:07:34 PM 41.7406 -74.4261 199° South 156 180 7,300 -400 Descending Boston Center
Thu 11:08:34 PM 41.6986 -74.4475 201° Southwest 159 183 7,000 -98 Descending Boston Center
Thu 11:09:37 PM 41.6592 -74.4667 200° South 156 180 7,100  Climbing Boston Center
Thu 11:10:37 PM 41.6186 -74.4858 199° South 155 178 7,000  Descending Boston Center
Thu 11:11:39 PM 41.5794 -74.5053 200° South 155 178 7,100  Climbing Boston Center
Thu 11:12:39 PM 41.5400 -74.5244 200° South 154 177 7,000  Descending Boston Center
Thu 11:13:40 PM 41.4975 -74.5447 200° South 154 177 7,100 50 Climbing Boston Center
Thu 11:14:40 PM 41.4581 -74.5644 201° Southwest 153 176 7,100  Level Boston Center
Thu 11:15:40 PM 41.4181 -74.5842 200° South 153 176 7,100  Level Boston Center
Thu 11:16:40 PM 41.3775 -74.6019 198° South 153 176 7,100 -195 Level Boston Center
Thu 11:17:43 PM 41.3356 -74.6175 196° South 154 177 6,700 -541 Descending Boston Center
Thu 11:18:42 PM 41.2853 -74.6378 197° South 171 197 6,000 -350 Descending Boston Center
Thu 11:19:43 PM 41.2419 -74.6528 195° South 166 191 6,000  Level Boston Center
Thu 11:20:45 PM 41.2011 -74.6658 194° South 156 180 6,000  Level Boston Center
Thu 11:21:40 PM 41.1667 -74.6667 181° South 155 178 6,000  Level New York TRACON
Thu 11:22:46 PM 41.1167 -74.6667 180° South 155 178 6,000  Level New York TRACON
Thu 11:23:46 PM 41.0667 -74.6500 166° South 156 180 6,000 -263 Level New York TRACON
Thu 11:24:40 PM 41.0667 -74.6000 90° East 170 196 5,500 -500 Descending New York TRACON
Thu 11:25:46 PM 41.0667 -74.5333 90° East 170 196 5,000 -286 Descending New York TRACON
Thu 11:26:46 PM 41.0500 -74.4833 114° Southeast 160 184 4,900 -158 Descending New York TRACON
Thu 11:27:40 PM 41.0333 -74.4333 114° Southeast 169 194 4,700 -250 Descending New York TRACON
Thu 11:28:46 PM 41.0500 -74.3667 72° East 166 191 4,400 -238 Descending New York TRACON
Thu 11:29:46 PM 41.0333 -74.3167 114° Southeast 165 190 4,200 -300 Descending New York TRACON
Thu 11:30:46 PM 41.0000 -74.2833 143° Southeast 171 197 3,800 -300 Descending New York TRACON
Thu 11:31:46 PM 40.9667 -74.2333 131° Southeast 164 189 3,600 -250 Descending New York TRACON
Thu 11:32:46 PM 40.9167 -74.2000 153° Southeast 170 196 3,300 -263 Descending New York TRACON
Thu 11:33:40 PM 40.8833 -74.1667 143° Southeast 164 189 3,100 -263 Descending New York TRACON
Thu 11:34:40 PM 40.8500 -74.1333 143° Southeast 169 194 2,800 -429 Descending New York TRACON
Thu 11:35:46 PM 40.8000 -74.1000 153° Southeast 173 199 2,200 -667 Descending New York TRACON
Thu 11:36:46 PM 40.7667 -74.1167 201° Southwest 164 189 1,400 -895 Descending New York TRACON
Thu 11:37:40 PM 40.7167 -74.1500 207° Southwest 168 193 500 -1,000 Descending New York TRACON
Thu 11:39:00 PM 40.6925 -74.1687 164° South  Level Estimated
Thu 11:46:00 PM 40.6925 -74.1687 164° South  Level Estimated

Login

Don't have an account? Register now (free) for customized features, flight alerts, and more!